Wind From: 10-12-2017 19:04 Until: 11-12-2017 16:00 warning for: Wind Level: Orange info button

Power and phone distribution networks may be disrupted for relatively long periods., Roofs and chimneys can be damaged. , Tree branches may break. , Vehicles can be deported. , Traffic may be disrupted, particularly on secondary roads in forest areas. Limit your trips. , Limit your speed in highway driving, especially if you drive a vehicle or hitch sensitive to wind. , Do not go for walks in forests or along the coast., In town, be vigilant against possible falling objects., Do not work on roofs and do not touch any electrical line fallen on the ground., Store or secure sensitive objects to wind or likely to be damaged., Always install power generators outside buildings. 


Meteo18 Weather Cam more information Meteo18 Weather Cam


Thunder radar more information blitzortung!


Rain radar more information rain snow radar


Visit our other weather sites:

Template documentation
and downloads

And another site



Weather Underground History page Text

Daily Summary for July 5, 2017 Units:  Both    English   Metric
« Previous Day
Next Day »
Daily Weekly Monthly Yearly Custom
  High: Low: Average:
Temperature: 93.6 °F /  34.2 °C 60.6 °F /  15.9 °C 77.7 °F /  25.4 °C
Dew Point: 63 °F /  17.2 °C 55.2 °F /  12.9 °C 59.7 °F /  15.4 °C
Humidity: 87 % 30 % 58 %
Wind Speed: 12 mph /  19.3 km/h - 1.8 mph /  2.9 km/h
Wind Gust: 14 mph /  22.5 km/h - -
Wind:- - SE
Pressure: 30.1 in /  1018.8 hPa 30 in /  1015.5 hPa -
Precipitation: 0 in /  0.0 mm    
Historical Graphs
 
 
Tabular Data for July 5, 2017
Time Temperature Dew Point Pressure Wind Wind Speed Wind Gust Humidity Rainfall Rate (Hourly)
00:02 68.5 °F /  20.3 °C 59.5 °F /  15.3 °C 30.1 in /  1018.8 hPa Calm     73 % 0 in /  0.0 mm
00:12 68.2 °F /  20.1 °C 59.5 °F /  15.3 °C 30.1 in /  1018.5 hPa Calm     74 % 0 in /  0.0 mm
00:17 67.8 °F /  19.9 °C 59.2 °F /  15.1 °C 30.1 in /  1018.8 hPa Calm     74 % 0 in /  0.0 mm
00:22 67.3 °F /  19.6 °C 59.5 °F /  15.3 °C 30.1 in /  1018.8 hPa Calm     76 % 0 in /  0.0 mm
00:32 65.7 °F /  18.7 °C 59.4 °F /  15.2 °C 30.1 in /  1018.8 hPa Calm     80 % 0 in /  0.0 mm
00:37 65.1 °F /  18.4 °C 59.2 °F /  15.1 °C 30.1 in /  1018.8 hPa Calm     81 % 0 in /  0.0 mm
00:42 65.5 °F /  18.6 °C 59.5 °F /  15.3 °C 30.1 in /  1018.8 hPa NNW 1 mph /  1.6 km/h   81 % 0 in /  0.0 mm
00:47 66.2 °F /  19.0 °C 59.9 °F /  15.5 °C 30.1 in /  1018.8 hPa Calm   2 mph /  3.2 km/h 80 % 0 in /  0.0 mm
00:52 66.2 °F /  19.0 °C 59.5 °F /  15.3 °C 30.1 in /  1018.8 hPa Calm   2 mph /  3.2 km/h 79 % 0 in /  0.0 mm
00:57 66 °F /  18.9 °C 59.4 °F /  15.2 °C 30.1 in /  1018.8 hPa Calm   2 mph /  3.2 km/h 79 % 0 in /  0.0 mm
01:02 65.7 °F /  18.7 °C 59.4 °F /  15.2 °C 30.1 in /  1018.8 hPa Calm   2 mph /  3.2 km/h 80 % 0 in /  0.0 mm
01:07 65.5 °F /  18.6 °C 59.5 °F /  15.3 °C 30.1 in /  1018.8 hPa WNW 1 mph /  1.6 km/h 1 mph /  1.6 km/h 81 % 0 in /  0.0 mm
01:12 65.5 °F /  18.6 °C 59.5 °F /  15.3 °C 30.1 in /  1018.8 hPa Calm   1 mph /  1.6 km/h 81 % 0 in /  0.0 mm
01:17 65.3 °F /  18.5 °C 59.4 °F /  15.2 °C 30.1 in /  1018.5 hPa Calm   1 mph /  1.6 km/h 81 % 0 in /  0.0 mm
01:22 65.1 °F /  18.4 °C 59.2 °F /  15.1 °C 30.1 in /  1018.5 hPa NNE 2 mph /  3.2 km/h 2 mph /  3.2 km/h 81 % 0 in /  0.0 mm
01:32 65.1 °F /  18.4 °C 59.5 °F /  15.3 °C 30.1 in /  1018.5 hPa NNW 2 mph /  3.2 km/h 2 mph /  3.2 km/h 82 % 0 in /  0.0 mm
01:37 65.3 °F /  18.5 °C 59.4 °F /  15.2 °C 30.1 in /  1018.5 hPa WNW 1 mph /  1.6 km/h 2 mph /  3.2 km/h 81 % 0 in /  0.0 mm
01:42 65.3 °F /  18.5 °C 59.4 °F /  15.2 °C 30.1 in /  1018.5 hPa NW 1 mph /  1.6 km/h 2 mph /  3.2 km/h 81 % 0 in /  0.0 mm
01:47 65.5 °F /  18.6 °C 59.5 °F /  15.3 °C 30.1 in /  1018.5 hPa NW 1 mph /  1.6 km/h 2 mph /  3.2 km/h 81 % 0 in /  0.0 mm
01:52 65.1 °F /  18.4 °C 59.2 °F /  15.1 °C 30.1 in /  1018.5 hPa NNW 1 mph /  1.6 km/h 2 mph /  3.2 km/h 81 % 0 in /  0.0 mm
02:02 64.6 °F /  18.1 °C 58.6 °F /  14.8 °C 30.1 in /  1018.2 hPa Calm   2 mph /  3.2 km/h 81 % 0 in /  0.0 mm
02:07 63.9 °F /  17.7 °C 58.6 °F /  14.8 °C 30.1 in /  1018.2 hPa Calm   2 mph /  3.2 km/h 83 % 0 in /  0.0 mm
02:12 63.5 °F /  17.5 °C 58.8 °F /  14.9 °C 30.1 in /  1018.5 hPa Calm   2 mph /  3.2 km/h 85 % 0 in /  0.0 mm
02:17 63.7 °F /  17.6 °C 58.5 °F /  14.7 °C 30.1 in /  1018.5 hPa Calm   1 mph /  1.6 km/h 83 % 0 in /  0.0 mm
02:22 63.9 °F /  17.7 °C 59.2 °F /  15.1 °C 30.1 in /  1018.5 hPa Calm   2 mph /  3.2 km/h 85 % 0 in /  0.0 mm
02:27 64.4 °F /  18.0 °C 59.2 °F /  15.1 °C 30.1 in /  1018.5 hPa WNW 1 mph /  1.6 km/h 2 mph /  3.2 km/h 83 % 0 in /  0.0 mm
02:32 64.4 °F /  18.0 °C 58.8 °F /  14.9 °C 30.1 in /  1018.5 hPa WNW 1 mph /  1.6 km/h 2 mph /  3.2 km/h 82 % 0 in /  0.0 mm
02:37 63.9 °F /  17.7 °C 58.6 °F /  14.8 °C 30.1 in /  1018.5 hPa WNW 1 mph /  1.6 km/h 1 mph /  1.6 km/h 83 % 0 in /  0.0 mm
02:42 63.7 °F /  17.6 °C 58.5 °F /  14.7 °C 30.1 in /  1018.5 hPa WNW 1 mph /  1.6 km/h 2 mph /  3.2 km/h 83 % 0 in /  0.0 mm
02:47 63.3 °F /  17.4 °C 58.8 °F /  14.9 °C 30.1 in /  1018.5 hPa WNW 1 mph /  1.6 km/h 2 mph /  3.2 km/h 85 % 0 in /  0.0 mm
02:52 63.1 °F /  17.3 °C 58.3 °F /  14.6 °C 30.1 in /  1018.5 hPa WNW 1 mph /  1.6 km/h 2 mph /  3.2 km/h 84 % 0 in /  0.0 mm
02:57 62.8 °F /  17.1 °C 58.3 °F /  14.6 °C 30.1 in /  1018.5 hPa WNW 2 mph /  3.2 km/h 2 mph /  3.2 km/h 85 % 0 in /  0.0 mm
03:02 63 °F /  17.2 °C 58.5 °F /  14.7 °C 30.1 in /  1018.5 hPa WNW 1 mph /  1.6 km/h 2 mph /  3.2 km/h 85 % 0 in /  0.0 mm
03:07 62.8 °F /  17.1 °C 58.3 °F /  14.6 °C 30.1 in /  1018.2 hPa WNW 2 mph /  3.2 km/h 2 mph /  3.2 km/h 85 % 0 in /  0.0 mm
03:12 62.4 °F /  16.9 °C 58.1 °F /  14.5 °C 30.1 in /  1018.2 hPa WNW 1 mph /  1.6 km/h 2 mph /  3.2 km/h 86 % 0 in /  0.0 mm
03:17 62.6 °F /  17.0 °C 58.1 °F /  14.5 °C 30.1 in /  1018.5 hPa Calm   2 mph /  3.2 km/h 85 % 0 in /  0.0 mm
03:22 63 °F /  17.2 °C 58.1 °F /  14.5 °C 30.1 in /  1018.2 hPa Calm   2 mph /  3.2 km/h 84 % 0 in /  0.0 mm
03:27 63.5 °F /  17.5 °C 57.9 °F /  14.4 °C 30.1 in /  1018.2 hPa NW 1 mph /  1.6 km/h 2 mph /  3.2 km/h 82 % 0 in /  0.0 mm
03:32 63.7 °F /  17.6 °C 58.1 °F /  14.5 °C 30.1 in /  1018.2 hPa NW 1 mph /  1.6 km/h 3 mph /  4.8 km/h 82 % 0 in /  0.0 mm
03:37 64 °F /  17.8 °C 58.1 °F /  14.5 °C 30.1 in /  1018.2 hPa NNW 1 mph /  1.6 km/h 3 mph /  4.8 km/h 81 % 0 in /  0.0 mm
03:42 64.2 °F /  17.9 °C 57.9 °F /  14.4 °C 30.1 in /  1018.2 hPa NNW 1 mph /  1.6 km/h 3 mph /  4.8 km/h 80 % 0 in /  0.0 mm
03:47 64 °F /  17.8 °C 57.7 °F /  14.3 °C 30.1 in /  1018.2 hPa NNW 1 mph /  1.6 km/h 2 mph /  3.2 km/h 80 % 0 in /  0.0 mm
03:52 64 °F /  17.8 °C 58.1 °F /  14.5 °C 30.1 in /  1017.8 hPa Calm   2 mph /  3.2 km/h 81 % 0 in /  0.0 mm
03:57 64 °F /  17.8 °C 58.1 °F /  14.5 °C 30.1 in /  1017.8 hPa North 1 mph /  1.6 km/h 2 mph /  3.2 km/h 81 % 0 in /  0.0 mm
04:02 64 °F /  17.8 °C 57.7 °F /  14.3 °C 30.1 in /  1017.8 hPa North 1 mph /  1.6 km/h 2 mph /  3.2 km/h 80 % 0 in /  0.0 mm
04:07 64 °F /  17.8 °C 57.7 °F /  14.3 °C 30.1 in /  1017.8 hPa Calm   2 mph /  3.2 km/h 80 % 0 in /  0.0 mm
04:12 63.9 °F /  17.7 °C 57.6 °F /  14.2 °C 30.1 in /  1017.8 hPa NNW 1 mph /  1.6 km/h 2 mph /  3.2 km/h 80 % 0 in /  0.0 mm
04:17 63.9 °F /  17.7 °C 57.6 °F /  14.2 °C 30.1 in /  1017.8 hPa NW 1 mph /  1.6 km/h 2 mph /  3.2 km/h 80 % 0 in /  0.0 mm
04:22 63.5 °F /  17.5 °C 57.6 °F /  14.2 °C 30.1 in /  1017.8 hPa Calm   1 mph /  1.6 km/h 81 % 0 in /  0.0 mm
04:27 63.3 °F /  17.4 °C 57.7 °F /  14.3 °C 30.1 in /  1017.8 hPa Calm   1 mph /  1.6 km/h 82 % 0 in /  0.0 mm
04:32 63.1 °F /  17.3 °C 57.6 °F /  14.2 °C 30.1 in /  1017.8 hPa North 1 mph /  1.6 km/h 1 mph /  1.6 km/h 82 % 0 in /  0.0 mm
04:37 63 °F /  17.2 °C 57.4 °F /  14.1 °C 30.1 in /  1017.8 hPa NNW 1 mph /  1.6 km/h 2 mph /  3.2 km/h 82 % 0 in /  0.0 mm
04:42 62.8 °F /  17.1 °C 57.6 °F /  14.2 °C 30.1 in /  1017.8 hPa NNE 1 mph /  1.6 km/h 2 mph /  3.2 km/h 83 % 0 in /  0.0 mm
04:47 62.6 °F /  17.0 °C 57.4 °F /  14.1 °C 30.1 in /  1017.8 hPa North 1 mph /  1.6 km/h 2 mph /  3.2 km/h 83 % 0 in /  0.0 mm
04:52 62.4 °F /  16.9 °C 57.2 °F /  14.0 °C 30.1 in /  1017.8 hPa Calm   2 mph /  3.2 km/h 83 % 0 in /  0.0 mm
04:57 62.4 °F /  16.9 °C 57.2 °F /  14.0 °C 30.1 in /  1017.5 hPa North 1 mph /  1.6 km/h 2 mph /  3.2 km/h 83 % 0 in /  0.0 mm
05:02 62.4 °F /  16.9 °C 57.2 °F /  14.0 °C 30.1 in /  1017.5 hPa North 1 mph /  1.6 km/h 2 mph /  3.2 km/h 83 % 0 in /  0.0 mm
05:07 62.4 °F /  16.9 °C 57.2 °F /  14.0 °C 30.1 in /  1017.5 hPa North 1 mph /  1.6 km/h 2 mph /  3.2 km/h 83 % 0 in /  0.0 mm
05:12 62.4 °F /  16.9 °C 57.2 °F /  14.0 °C 30.1 in /  1017.5 hPa Calm   2 mph /  3.2 km/h 83 % 0 in /  0.0 mm
05:17 62.2 °F /  16.8 °C 57.4 °F /  14.1 °C 30.1 in /  1017.5 hPa Calm   2 mph /  3.2 km/h 84 % 0 in /  0.0 mm
05:22 62.2 °F /  16.8 °C 57.4 °F /  14.1 °C 30.1 in /  1017.5 hPa NNW 1 mph /  1.6 km/h 2 mph /  3.2 km/h 84 % 0 in /  0.0 mm
05:32 62.1 °F /  16.7 °C 57.2 °F /  14.0 °C 30.1 in /  1017.5 hPa Calm   2 mph /  3.2 km/h 84 % 0 in /  0.0 mm
05:37 62.1 °F /  16.7 °C 57.2 °F /  14.0 °C 30.1 in /  1017.5 hPa Calm   2 mph /  3.2 km/h 84 % 0 in /  0.0 mm
05:42 61.9 °F /  16.6 °C 57 °F /  13.9 °C 30.1 in /  1017.5 hPa North 1 mph /  1.6 km/h 2 mph /  3.2 km/h 84 % 0 in /  0.0 mm
05:47 61.5 °F /  16.4 °C 57 °F /  13.9 °C 30.1 in /  1017.5 hPa NNE 1 mph /  1.6 km/h 2 mph /  3.2 km/h 85 % 0 in /  0.0 mm
05:52 61.3 °F /  16.3 °C 56.8 °F /  13.8 °C 30.1 in /  1017.5 hPa Calm   2 mph /  3.2 km/h 85 % 0 in /  0.0 mm
05:57 61.2 °F /  16.2 °C 56.7 °F /  13.7 °C 30.1 in /  1017.5 hPa North 2 mph /  3.2 km/h 2 mph /  3.2 km/h 85 % 0 in /  0.0 mm
06:02 60.8 °F /  16.0 °C 56.7 °F /  13.7 °C 30.1 in /  1017.5 hPa NNW 1 mph /  1.6 km/h 2 mph /  3.2 km/h 86 % 0 in /  0.0 mm
06:07 60.6 °F /  15.9 °C 56.5 °F /  13.6 °C 30.1 in /  1017.5 hPa NNW 1 mph /  1.6 km/h 3 mph /  4.8 km/h 86 % 0 in /  0.0 mm
06:12 60.6 °F /  15.9 °C 56.7 °F /  13.7 °C 30.1 in /  1017.5 hPa NNW 1 mph /  1.6 km/h 3 mph /  4.8 km/h 87 % 0 in /  0.0 mm
06:17 61 °F /  16.1 °C 57 °F /  13.9 °C 30.1 in /  1017.5 hPa NNW 1 mph /  1.6 km/h 2 mph /  3.2 km/h 87 % 0 in /  0.0 mm
06:22 61 °F /  16.1 °C 56.8 °F /  13.8 °C 30.1 in /  1017.5 hPa North 1 mph /  1.6 km/h 2 mph /  3.2 km/h 86 % 0 in /  0.0 mm
06:32 60.6 °F /  15.9 °C 56.7 °F /  13.7 °C 30.1 in /  1017.5 hPa North 1 mph /  1.6 km/h 1 mph /  1.6 km/h 87 % 0 in /  0.0 mm
06:37 60.8 °F /  16.0 °C 56.8 °F /  13.8 °C 30.1 in /  1017.5 hPa Calm   1 mph /  1.6 km/h 87 % 0 in /  0.0 mm
06:42 61.3 °F /  16.3 °C 57.4 °F /  14.1 °C 30.1 in /  1017.5 hPa NNW 1 mph /  1.6 km/h 2 mph /  3.2 km/h 87 % 0 in /  0.0 mm
06:47 61.9 °F /  16.6 °C 57.6 °F /  14.2 °C 30.1 in /  1017.5 hPa North 3 mph /  4.8 km/h 3 mph /  4.8 km/h 86 % 0 in /  0.0 mm
06:52 62.1 °F /  16.7 °C 57.6 °F /  14.2 °C 30.1 in /  1017.5 hPa NNE 4 mph /  6.4 km/h 5 mph /  8.0 km/h 85 % 0 in /  0.0 mm
07:02 63 °F /  17.2 °C 57.7 °F /  14.3 °C 30.1 in /  1017.8 hPa NNE 2 mph /  3.2 km/h 5 mph /  8.0 km/h 83 % 0 in /  0.0 mm
07:12 64 °F /  17.8 °C 58.5 °F /  14.7 °C 30.1 in /  1017.8 hPa North 2 mph /  3.2 km/h 3 mph /  4.8 km/h 82 % 0 in /  0.0 mm
07:17 64.6 °F /  18.1 °C 59 °F /  15.0 °C 30.1 in /  1017.8 hPa Calm   3 mph /  4.8 km/h 82 % 0 in /  0.0 mm
07:22 65.1 °F /  18.4 °C 59.2 °F /  15.1 °C 30.1 in /  1017.8 hPa North 1 mph /  1.6 km/h 3 mph /  4.8 km/h 81 % 0 in /  0.0 mm
07:27 65.7 °F /  18.7 °C 59.7 °F /  15.4 °C 30.1 in /  1017.8 hPa North 1 mph /  1.6 km/h 3 mph /  4.8 km/h 81 % 0 in /  0.0 mm
07:37 66.4 °F /  19.1 °C 59.7 °F /  15.4 °C 30.1 in /  1017.8 hPa North 2 mph /  3.2 km/h 3 mph /  4.8 km/h 79 % 0 in /  0.0 mm
07:42 66.6 °F /  19.2 °C 59.9 °F /  15.5 °C 30.1 in /  1017.5 hPa NNE 1 mph /  1.6 km/h 3 mph /  4.8 km/h 79 % 0 in /  0.0 mm
07:52 67.5 °F /  19.7 °C 60.8 °F /  16.0 °C 30.1 in /  1017.8 hPa Calm   2 mph /  3.2 km/h 79 % 0 in /  0.0 mm
08:02 70 °F /  21.1 °C 61.3 °F /  16.3 °C 30.1 in /  1017.5 hPa Calm   1 mph /  1.6 km/h 74 % 0 in /  0.0 mm
08:12 70 °F /  21.1 °C 61 °F /  16.1 °C 30.1 in /  1017.5 hPa ENE 2 mph /  3.2 km/h 3 mph /  4.8 km/h 73 % 0 in /  0.0 mm
08:17 70.2 °F /  21.2 °C 61.2 °F /  16.2 °C 30.1 in /  1017.5 hPa NE 1 mph /  1.6 km/h 4 mph /  6.4 km/h 73 % 0 in /  0.0 mm
08:22 70.3 °F /  21.3 °C 60.8 °F /  16.0 °C 30.1 in /  1017.8 hPa NNE 2 mph /  3.2 km/h 5 mph /  8.0 km/h 72 % 0 in /  0.0 mm
08:32 71.1 °F /  21.7 °C 61.2 °F /  16.2 °C 30.1 in /  1017.8 hPa ENE 2 mph /  3.2 km/h 5 mph /  8.0 km/h 71 % 0 in /  0.0 mm
08:42 72 °F /  22.2 °C 61.7 °F /  16.5 °C 30.1 in /  1017.8 hPa ENE 3 mph /  4.8 km/h 6 mph /  9.7 km/h 70 % 0 in /  0.0 mm
08:47 72.1 °F /  22.3 °C 60.6 °F /  15.9 °C 30.1 in /  1017.8 hPa ENE 5 mph /  8.0 km/h 6 mph /  9.7 km/h 67 % 0 in /  0.0 mm
08:52 72.3 °F /  22.4 °C 60.3 °F /  15.7 °C 30.1 in /  1017.8 hPa ENE 3 mph /  4.8 km/h 7 mph /  11.3 km/h 66 % 0 in /  0.0 mm
08:57 72.9 °F /  22.7 °C 60.8 °F /  16.0 °C 30.1 in /  1017.8 hPa NE 3 mph /  4.8 km/h 7 mph /  11.3 km/h 66 % 0 in /  0.0 mm
09:02 73 °F /  22.8 °C 60.6 °F /  15.9 °C 30.1 in /  1017.8 hPa NE 2 mph /  3.2 km/h 7 mph /  11.3 km/h 65 % 0 in /  0.0 mm
09:07 73.2 °F /  22.9 °C 60.3 °F /  15.7 °C 30.1 in /  1017.8 hPa ENE 4 mph /  6.4 km/h 6 mph /  9.7 km/h 64 % 0 in /  0.0 mm
09:12 73.6 °F /  23.1 °C 60.6 °F /  15.9 °C 30.1 in /  1017.8 hPa ENE 6 mph /  9.7 km/h 6 mph /  9.7 km/h 64 % 0 in /  0.0 mm
09:17 74.1 °F /  23.4 °C 59.7 °F /  15.4 °C 30.1 in /  1017.8 hPa East 2 mph /  3.2 km/h 6 mph /  9.7 km/h 61 % 0 in /  0.0 mm
09:22 74.5 °F /  23.6 °C 60.1 °F /  15.6 °C 30.1 in /  1017.8 hPa ENE 1 mph /  1.6 km/h 6 mph /  9.7 km/h 61 % 0 in /  0.0 mm
09:32 74.8 °F /  23.8 °C 60.1 °F /  15.6 °C 30.1 in /  1017.8 hPa ENE 3 mph /  4.8 km/h 6 mph /  9.7 km/h 60 % 0 in /  0.0 mm
09:42 75 °F /  23.9 °C 59.7 °F /  15.4 °C 30.1 in /  1017.8 hPa East 2 mph /  3.2 km/h 9 mph /  14.5 km/h 59 % 0 in /  0.0 mm
09:47 75.6 °F /  24.2 °C 60.3 °F /  15.7 °C 30.1 in /  1017.8 hPa ENE 1 mph /  1.6 km/h 9 mph /  14.5 km/h 59 % 0 in /  0.0 mm
09:52 75.7 °F /  24.3 °C 60.8 °F /  16.0 °C 30.1 in /  1017.8 hPa ENE 2 mph /  3.2 km/h 9 mph /  14.5 km/h 60 % 0 in /  0.0 mm
09:57 75.9 °F /  24.4 °C 61 °F /  16.1 °C 30.1 in /  1017.8 hPa East 2 mph /  3.2 km/h 7 mph /  11.3 km/h 60 % 0 in /  0.0 mm
10:02 76.5 °F /  24.7 °C 61 °F /  16.1 °C 30.1 in /  1017.8 hPa ESE 2 mph /  3.2 km/h 7 mph /  11.3 km/h 59 % 0 in /  0.0 mm
10:12 77.5 °F /  25.3 °C 60.6 °F /  15.9 °C 30.1 in /  1017.8 hPa East 3 mph /  4.8 km/h 6 mph /  9.7 km/h 56 % 0 in /  0.0 mm
10:17 77.9 °F /  25.5 °C 61 °F /  16.1 °C 30.1 in /  1017.8 hPa SE 2 mph /  3.2 km/h 8 mph /  12.9 km/h 56 % 0 in /  0.0 mm
10:22 78.1 °F /  25.6 °C 61.2 °F /  16.2 °C 30.1 in /  1017.8 hPa SE 3 mph /  4.8 km/h 8 mph /  12.9 km/h 56 % 0 in /  0.0 mm
10:32 78.4 °F /  25.8 °C 61.5 °F /  16.4 °C 30.1 in /  1017.8 hPa ENE 2 mph /  3.2 km/h 8 mph /  12.9 km/h 56 % 0 in /  0.0 mm
10:37 78.6 °F /  25.9 °C 61.2 °F /  16.2 °C 30.1 in /  1017.8 hPa ENE 5 mph /  8.0 km/h 8 mph /  12.9 km/h 55 % 0 in /  0.0 mm
10:42 78.6 °F /  25.9 °C 60.6 °F /  15.9 °C 30.1 in /  1017.8 hPa East 2 mph /  3.2 km/h 8 mph /  12.9 km/h 54 % 0 in /  0.0 mm
10:47 79.2 °F /  26.2 °C 61.2 °F /  16.2 °C 30.1 in /  1017.8 hPa Calm   8 mph /  12.9 km/h 54 % 0 in /  0.0 mm
10:52 79.5 °F /  26.4 °C 60.8 °F /  16.0 °C 30.1 in /  1017.8 hPa East 4 mph /  6.4 km/h 8 mph /  12.9 km/h 53 % 0 in /  0.0 mm
10:57 79.9 °F /  26.6 °C 61.2 °F /  16.2 °C 30.1 in /  1017.8 hPa ENE 2 mph /  3.2 km/h 7 mph /  11.3 km/h 53 % 0 in /  0.0 mm
11:02 79.9 °F /  26.6 °C 61.2 °F /  16.2 °C 30.1 in /  1017.8 hPa NE 4 mph /  6.4 km/h 7 mph /  11.3 km/h 53 % 0 in /  0.0 mm
11:07 79.9 °F /  26.6 °C 61.2 °F /  16.2 °C 30.1 in /  1017.8 hPa ENE 2 mph /  3.2 km/h 8 mph /  12.9 km/h 53 % 0 in /  0.0 mm
11:12 80.1 °F /  26.7 °C 60.3 °F /  15.7 °C 30.1 in /  1017.8 hPa ENE 3 mph /  4.8 km/h 9 mph /  14.5 km/h 51 % 0 in /  0.0 mm
11:17 80.1 °F /  26.7 °C 60.8 °F /  16.0 °C 30.1 in /  1017.8 hPa NE 3 mph /  4.8 km/h 9 mph /  14.5 km/h 52 % 0 in /  0.0 mm
11:22 80.4 °F /  26.9 °C 61.7 °F /  16.5 °C 30.1 in /  1017.8 hPa East 4 mph /  6.4 km/h 7 mph /  11.3 km/h 53 % 0 in /  0.0 mm
11:27 81 °F /  27.2 °C 61.2 °F /  16.2 °C 30.1 in /  1017.8 hPa ENE 2 mph /  3.2 km/h 7 mph /  11.3 km/h 51 % 0 in /  0.0 mm
11:32 81.5 °F /  27.5 °C 61 °F /  16.1 °C 30.1 in /  1017.5 hPa SSW 1 mph /  1.6 km/h 8 mph /  12.9 km/h 50 % 0 in /  0.0 mm
11:37 81.9 °F /  27.7 °C 61.3 °F /  16.3 °C 30.1 in /  1017.5 hPa ENE 5 mph /  8.0 km/h 8 mph /  12.9 km/h 50 % 0 in /  0.0 mm
11:42 81.7 °F /  27.6 °C 61.2 °F /  16.2 °C 30.1 in /  1017.5 hPa SSE 2 mph /  3.2 km/h 8 mph /  12.9 km/h 50 % 0 in /  0.0 mm
11:47 81.9 °F /  27.7 °C 61.9 °F /  16.6 °C 30.1 in /  1017.5 hPa ENE 3 mph /  4.8 km/h 10 mph /  16.1 km/h 51 % 0 in /  0.0 mm
11:52 82.2 °F /  27.9 °C 62.2 °F /  16.8 °C 30.1 in /  1017.5 hPa ENE 6 mph /  9.7 km/h 10 mph /  16.1 km/h 51 % 0 in /  0.0 mm
11:57 82.9 °F /  28.3 °C 62.4 °F /  16.9 °C 30.1 in /  1017.5 hPa ENE 2 mph /  3.2 km/h 10 mph /  16.1 km/h 50 % 0 in /  0.0 mm
12:02 83.1 °F /  28.4 °C 62.1 °F /  16.7 °C 30.1 in /  1017.5 hPa ENE 3 mph /  4.8 km/h 8 mph /  12.9 km/h 49 % 0 in /  0.0 mm
12:07 83.1 °F /  28.4 °C 61.3 °F /  16.3 °C 30.1 in /  1017.5 hPa ENE 3 mph /  4.8 km/h 8 mph /  12.9 km/h 48 % 0 in /  0.0 mm
12:12 83.3 °F /  28.5 °C 61.5 °F /  16.4 °C 30.1 in /  1017.5 hPa NE 7 mph /  11.3 km/h 9 mph /  14.5 km/h 48 % 0 in /  0.0 mm
12:17 83.8 °F /  28.8 °C 60.3 °F /  15.7 °C 30.1 in /  1017.5 hPa East 9 mph /  14.5 km/h 9 mph /  14.5 km/h 45 % 0 in /  0.0 mm
12:22 83.8 °F /  28.8 °C 60.8 °F /  16.0 °C 30.1 in /  1017.5 hPa NE 6 mph /  9.7 km/h 11 mph /  17.7 km/h 46 % 0 in /  0.0 mm
12:27 84.2 °F /  29.0 °C 60.6 °F /  15.9 °C 30.1 in /  1017.5 hPa ENE 6 mph /  9.7 km/h 11 mph /  17.7 km/h 45 % 0 in /  0.0 mm
12:32 84.4 °F /  29.1 °C 61.3 °F /  16.3 °C 30.1 in /  1017.5 hPa NE 7 mph /  11.3 km/h 11 mph /  17.7 km/h 46 % 0 in /  0.0 mm
12:37 84.6 °F /  29.2 °C 61.5 °F /  16.4 °C 30 in /  1017.2 hPa ENE 1 mph /  1.6 km/h 10 mph /  16.1 km/h 46 % 0 in /  0.0 mm
12:42 84.9 °F /  29.4 °C 59.9 °F /  15.5 °C 30.1 in /  1017.5 hPa ENE 7 mph /  11.3 km/h 14 mph /  22.5 km/h 43 % 0 in /  0.0 mm
12:47 84.7 °F /  29.3 °C 59.7 °F /  15.4 °C 30 in /  1017.2 hPa ENE 4 mph /  6.4 km/h 14 mph /  22.5 km/h 43 % 0 in /  0.0 mm
12:52 84.9 °F /  29.4 °C 59.9 °F /  15.5 °C 30 in /  1017.2 hPa ENE 5 mph /  8.0 km/h 14 mph /  22.5 km/h 43 % 0 in /  0.0 mm
12:57 85.8 °F /  29.9 °C 60.1 °F /  15.6 °C 30 in /  1017.2 hPa East 4 mph /  6.4 km/h 13 mph /  20.9 km/h 42 % 0 in /  0.0 mm
13:02 86.5 °F /  30.3 °C 60.1 °F /  15.6 °C 30 in /  1017.2 hPa East 2 mph /  3.2 km/h 13 mph /  20.9 km/h 41 % 0 in /  0.0 mm
13:07 86.5 °F /  30.3 °C 59.4 °F /  15.2 °C 30 in /  1017.2 hPa NE 2 mph /  3.2 km/h 8 mph /  12.9 km/h 40 % 0 in /  0.0 mm
13:12 86.4 °F /  30.2 °C 59.9 °F /  15.5 °C 30 in /  1017.2 hPa NNE 4 mph /  6.4 km/h 10 mph /  16.1 km/h 41 % 0 in /  0.0 mm
13:17 87.1 °F /  30.6 °C 60.4 °F /  15.8 °C 30 in /  1017.2 hPa ENE 2 mph /  3.2 km/h 10 mph /  16.1 km/h 41 % 0 in /  0.0 mm
13:22 87.1 °F /  30.6 °C 59.9 °F /  15.5 °C 30 in /  1017.2 hPa East 12 mph /  19.3 km/h 12 mph /  19.3 km/h 40 % 0 in /  0.0 mm
13:27 87.3 °F /  30.7 °C 59.9 °F /  15.5 °C 30 in /  1017.2 hPa East 7 mph /  11.3 km/h 12 mph /  19.3 km/h 40 % 0 in /  0.0 mm
13:32 86.4 °F /  30.2 °C 58.5 °F /  14.7 °C 30 in /  1017.2 hPa NNE 4 mph /  6.4 km/h 12 mph /  19.3 km/h 39 % 0 in /  0.0 mm
13:37 86.7 °F /  30.4 °C 59.5 °F /  15.3 °C 30 in /  1017.2 hPa ESE 1 mph /  1.6 km/h 12 mph /  19.3 km/h 40 % 0 in /  0.0 mm
13:42 87.3 °F /  30.7 °C 59.4 °F /  15.2 °C 30 in /  1017.2 hPa ENE 5 mph /  8.0 km/h 11 mph /  17.7 km/h 39 % 0 in /  0.0 mm
13:47 87.4 °F /  30.8 °C 59.4 °F /  15.2 °C 30 in /  1017.2 hPa ENE 6 mph /  9.7 km/h 8 mph /  12.9 km/h 39 % 0 in /  0.0 mm
13:52 87.6 °F /  30.9 °C 59.5 °F /  15.3 °C 30 in /  1017.2 hPa East 1 mph /  1.6 km/h 12 mph /  19.3 km/h 39 % 0 in /  0.0 mm
13:57 87.3 °F /  30.7 °C 58.6 °F /  14.8 °C 30 in /  1017.2 hPa East 2 mph /  3.2 km/h 12 mph /  19.3 km/h 38 % 0 in /  0.0 mm
14:02 88 °F /  31.1 °C 59.2 °F /  15.1 °C 30 in /  1016.8 hPa SE 3 mph /  4.8 km/h 12 mph /  19.3 km/h 38 % 0 in /  0.0 mm
14:07 88.2 °F /  31.2 °C 59.4 °F /  15.2 °C 30 in /  1016.8 hPa East 4 mph /  6.4 km/h 9 mph /  14.5 km/h 38 % 0 in /  0.0 mm
14:12 88.2 °F /  31.2 °C 59.4 °F /  15.2 °C 30 in /  1016.8 hPa NE 3 mph /  4.8 km/h 9 mph /  14.5 km/h 38 % 0 in /  0.0 mm
14:22 89.2 °F /  31.8 °C 60.3 °F /  15.7 °C 30 in /  1016.8 hPa ENE 4 mph /  6.4 km/h 9 mph /  14.5 km/h 38 % 0 in /  0.0 mm
14:27 89.4 °F /  31.9 °C 60.4 °F /  15.8 °C 30 in /  1016.5 hPa SE 2 mph /  3.2 km/h 8 mph /  12.9 km/h 38 % 0 in /  0.0 mm
14:32 89.8 °F /  32.1 °C 60.1 °F /  15.6 °C 30 in /  1016.8 hPa East 4 mph /  6.4 km/h 10 mph /  16.1 km/h 37 % 0 in /  0.0 mm
14:37 89.8 °F /  32.1 °C 60.1 °F /  15.6 °C 30 in /  1016.8 hPa NE 2 mph /  3.2 km/h 12 mph /  19.3 km/h 37 % 0 in /  0.0 mm
14:42 90.7 °F /  32.6 °C 59.2 °F /  15.1 °C 30 in /  1016.5 hPa SSE 5 mph /  8.0 km/h 12 mph /  19.3 km/h 35 % 0 in /  0.0 mm
14:47 90.7 °F /  32.6 °C 59.2 °F /  15.1 °C 30 in /  1016.5 hPa East 1 mph /  1.6 km/h 9 mph /  14.5 km/h 35 % 0 in /  0.0 mm
14:52 90.9 °F /  32.7 °C 58.6 °F /  14.8 °C 30 in /  1016.5 hPa ESE 3 mph /  4.8 km/h 9 mph /  14.5 km/h 34 % 0 in /  0.0 mm
14:57 91 °F /  32.8 °C 58.8 °F /  14.9 °C 30 in /  1016.5 hPa Calm   9 mph /  14.5 km/h 34 % 0 in /  0.0 mm
15:02 91.2 °F /  32.9 °C 59 °F /  15.0 °C 30 in /  1016.5 hPa ESE 2 mph /  3.2 km/h 7 mph /  11.3 km/h 34 % 0 in /  0.0 mm
15:12 91.6 °F /  33.1 °C 58.5 °F /  14.7 °C 30 in /  1016.1 hPa ESE 2 mph /  3.2 km/h 6 mph /  9.7 km/h 33 % 0 in /  0.0 mm
15:22 90.9 °F /  32.7 °C 55.2 °F /  12.9 °C 30 in /  1016.1 hPa East 2 mph /  3.2 km/h 8 mph /  12.9 km/h 30 % 0 in /  0.0 mm
15:27 90.7 °F /  32.6 °C 55.9 °F /  13.3 °C 30 in /  1016.1 hPa NE 3 mph /  4.8 km/h 9 mph /  14.5 km/h 31 % 0 in /  0.0 mm
15:32 90.3 °F /  32.4 °C 56.5 °F /  13.6 °C 30 in /  1016.1 hPa ESE 3 mph /  4.8 km/h 9 mph /  14.5 km/h 32 % 0 in /  0.0 mm
15:37 90.3 °F /  32.4 °C 56.5 °F /  13.6 °C 30 in /  1016.1 hPa NNE 3 mph /  4.8 km/h 10 mph /  16.1 km/h 32 % 0 in /  0.0 mm
15:42 90.9 °F /  32.7 °C 56.8 °F /  13.8 °C 30 in /  1016.1 hPa SE 4 mph /  6.4 km/h 10 mph /  16.1 km/h 32 % 0 in /  0.0 mm
15:47 91 °F /  32.8 °C 57.9 °F /  14.4 °C 30 in /  1016.1 hPa ENE 2 mph /  3.2 km/h 10 mph /  16.1 km/h 33 % 0 in /  0.0 mm
15:52 91.4 °F /  33.0 °C 59.9 °F /  15.5 °C 30 in /  1016.1 hPa East 4 mph /  6.4 km/h 8 mph /  12.9 km/h 35 % 0 in /  0.0 mm
15:57 91.6 °F /  33.1 °C 58.5 °F /  14.7 °C 30 in /  1016.1 hPa SE 5 mph /  8.0 km/h 8 mph /  12.9 km/h 33 % 0 in /  0.0 mm
16:02 91.9 °F /  33.3 °C 57.9 °F /  14.4 °C 30 in /  1016.1 hPa Calm   8 mph /  12.9 km/h 32 % 0 in /  0.0 mm
16:12 91.9 °F /  33.3 °C 58.6 °F /  14.8 °C 30 in /  1015.8 hPa East 2 mph /  3.2 km/h 9 mph /  14.5 km/h 33 % 0 in /  0.0 mm
16:17 91.6 °F /  33.1 °C 59.2 °F /  15.1 °C 30 in /  1015.8 hPa ENE 4 mph /  6.4 km/h 9 mph /  14.5 km/h 34 % 0 in /  0.0 mm
16:22 91.6 °F /  33.1 °C 60.1 °F /  15.6 °C 30 in /  1015.8 hPa ESE 1 mph /  1.6 km/h 9 mph /  14.5 km/h 35 % 0 in /  0.0 mm
16:27 91.6 °F /  33.1 °C 59.2 °F /  15.1 °C 30 in /  1015.8 hPa ENE 4 mph /  6.4 km/h 11 mph /  17.7 km/h 34 % 0 in /  0.0 mm
16:32 91.6 °F /  33.1 °C 59.2 °F /  15.1 °C 30 in /  1015.8 hPa SE 1 mph /  1.6 km/h 11 mph /  17.7 km/h 34 % 0 in /  0.0 mm
16:37 92.3 °F /  33.5 °C 59.9 °F /  15.5 °C 30 in /  1015.8 hPa SSW 1 mph /  1.6 km/h 11 mph /  17.7 km/h 34 % 0 in /  0.0 mm
16:42 92.3 °F /  33.5 °C 58.1 °F /  14.5 °C 30 in /  1015.8 hPa SSW 4 mph /  6.4 km/h 7 mph /  11.3 km/h 32 % 0 in /  0.0 mm
16:47 92.3 °F /  33.5 °C 60.6 °F /  15.9 °C 30 in /  1015.8 hPa SW 2 mph /  3.2 km/h 9 mph /  14.5 km/h 35 % 0 in /  0.0 mm
16:52 92.8 °F /  33.8 °C 60.3 °F /  15.7 °C 30 in /  1015.8 hPa East 2 mph /  3.2 km/h 9 mph /  14.5 km/h 34 % 0 in /  0.0 mm
16:57 92.8 °F /  33.8 °C 59.5 °F /  15.3 °C 30 in /  1015.8 hPa SE 3 mph /  4.8 km/h 11 mph /  17.7 km/h 33 % 0 in /  0.0 mm
17:02 93.2 °F /  34.0 °C 60.6 °F /  15.9 °C 30 in /  1015.8 hPa South 2 mph /  3.2 km/h 11 mph /  17.7 km/h 34 % 0 in /  0.0 mm
17:12 92.7 °F /  33.7 °C 60.3 °F /  15.7 °C 30 in /  1015.8 hPa SSW 2 mph /  3.2 km/h 9 mph /  14.5 km/h 34 % 0 in /  0.0 mm
17:17 93 °F /  33.9 °C 60.4 °F /  15.8 °C 30 in /  1015.5 hPa SW 4 mph /  6.4 km/h 7 mph /  11.3 km/h 34 % 0 in /  0.0 mm
17:22 92.8 °F /  33.8 °C 61.2 °F /  16.2 °C 30 in /  1015.5 hPa East 1 mph /  1.6 km/h 8 mph /  12.9 km/h 35 % 0 in /  0.0 mm
17:27 93.6 °F /  34.2 °C 61.7 °F /  16.5 °C 30 in /  1015.5 hPa ESE 3 mph /  4.8 km/h 8 mph /  12.9 km/h 35 % 0 in /  0.0 mm
17:32 93.2 °F /  34.0 °C 59 °F /  15.0 °C 30 in /  1015.5 hPa SW 3 mph /  4.8 km/h 9 mph /  14.5 km/h 32 % 0 in /  0.0 mm
17:37 93.2 °F /  34.0 °C 60.6 °F /  15.9 °C 30 in /  1015.5 hPa East 5 mph /  8.0 km/h 9 mph /  14.5 km/h 34 % 0 in /  0.0 mm
17:42 93.2 °F /  34.0 °C 59 °F /  15.0 °C 30 in /  1015.5 hPa ENE 2 mph /  3.2 km/h 9 mph /  14.5 km/h 32 % 0 in /  0.0 mm
17:47 93.2 °F /  34.0 °C 59.9 °F /  15.5 °C 30 in /  1015.5 hPa SSW 3 mph /  4.8 km/h 8 mph /  12.9 km/h 33 % 0 in /  0.0 mm
17:52 93 °F /  33.9 °C 62.1 °F /  16.7 °C 30 in /  1015.5 hPa SSE 4 mph /  6.4 km/h 8 mph /  12.9 km/h 36 % 0 in /  0.0 mm
17:57 93.2 °F /  34.0 °C 59 °F /  15.0 °C 30 in /  1015.5 hPa ENE 2 mph /  3.2 km/h 8 mph /  12.9 km/h 32 % 0 in /  0.0 mm
18:02 92.8 °F /  33.8 °C 59.5 °F /  15.3 °C 30 in /  1015.5 hPa ENE 3 mph /  4.8 km/h 7 mph /  11.3 km/h 33 % 0 in /  0.0 mm
18:07 92.7 °F /  33.7 °C 58.5 °F /  14.7 °C 30 in /  1015.5 hPa WSW 2 mph /  3.2 km/h 8 mph /  12.9 km/h 32 % 0 in /  0.0 mm
18:12 92.3 °F /  33.5 °C 59 °F /  15.0 °C 30 in /  1015.5 hPa SSW 2 mph /  3.2 km/h 8 mph /  12.9 km/h 33 % 0 in /  0.0 mm
18:17 92.5 °F /  33.6 °C 60.1 °F /  15.6 °C 30 in /  1015.5 hPa South 1 mph /  1.6 km/h 8 mph /  12.9 km/h 34 % 0 in /  0.0 mm
18:22 92.5 °F /  33.6 °C 60.1 °F /  15.6 °C 30 in /  1015.5 hPa SSW 4 mph /  6.4 km/h 6 mph /  9.7 km/h 34 % 0 in /  0.0 mm
18:27 91.8 °F /  33.2 °C 60.3 °F /  15.7 °C 30 in /  1015.5 hPa SE 1 mph /  1.6 km/h 6 mph /  9.7 km/h 35 % 0 in /  0.0 mm
18:32 91.8 °F /  33.2 °C 60.3 °F /  15.7 °C 30 in /  1015.5 hPa Calm   7 mph /  11.3 km/h 35 % 0 in /  0.0 mm
18:42 92.5 °F /  33.6 °C 59.2 °F /  15.1 °C 30 in /  1015.5 hPa Calm   7 mph /  11.3 km/h 33 % 0 in /  0.0 mm
18:47 92.8 °F /  33.8 °C 58.6 °F /  14.8 °C 30 in /  1015.5 hPa East 2 mph /  3.2 km/h 6 mph /  9.7 km/h 32 % 0 in /  0.0 mm
18:52 92.1 °F /  33.4 °C 57.2 °F /  14.0 °C 30 in /  1015.5 hPa SSE 1 mph /  1.6 km/h 6 mph /  9.7 km/h 31 % 0 in /  0.0 mm
18:57 92.1 °F /  33.4 °C 58.1 °F /  14.5 °C 30 in /  1015.5 hPa SE 1 mph /  1.6 km/h 6 mph /  9.7 km/h 32 % 0 in /  0.0 mm
19:02 91.8 °F /  33.2 °C 57.7 °F /  14.3 °C 30 in /  1015.5 hPa Calm   6 mph /  9.7 km/h 32 % 0 in /  0.0 mm
19:07 91.6 °F /  33.1 °C 60.1 °F /  15.6 °C 30 in /  1015.5 hPa SSE 2 mph /  3.2 km/h 5 mph /  8.0 km/h 35 % 0 in /  0.0 mm
19:12 91.4 °F /  33.0 °C 58.3 °F /  14.6 °C 30 in /  1015.5 hPa ENE 1 mph /  1.6 km/h 5 mph /  8.0 km/h 33 % 0 in /  0.0 mm
19:17 91.2 °F /  32.9 °C 58.1 °F /  14.5 °C 30 in /  1015.5 hPa ENE 4 mph /  6.4 km/h 6 mph /  9.7 km/h 33 % 0 in /  0.0 mm
19:22 90.9 °F /  32.7 °C 57.7 °F /  14.3 °C 30 in /  1015.5 hPa East 2 mph /  3.2 km/h 6 mph /  9.7 km/h 33 % 0 in /  0.0 mm
19:27 90.5 °F /  32.5 °C 58.3 °F /  14.6 °C 30 in /  1015.5 hPa East 1 mph /  1.6 km/h 6 mph /  9.7 km/h 34 % 0 in /  0.0 mm
19:32 90.1 °F /  32.3 °C 57.9 °F /  14.4 °C 30 in /  1015.5 hPa ENE 2 mph /  3.2 km/h 6 mph /  9.7 km/h 34 % 0 in /  0.0 mm
19:37 90 °F /  32.2 °C 58.6 °F /  14.8 °C 30 in /  1015.5 hPa East 4 mph /  6.4 km/h 6 mph /  9.7 km/h 35 % 0 in /  0.0 mm
19:42 90.1 °F /  32.3 °C 58.8 °F /  14.9 °C 30 in /  1015.5 hPa ENE 2 mph /  3.2 km/h 6 mph /  9.7 km/h 35 % 0 in /  0.0 mm
19:47 90.3 °F /  32.4 °C 59 °F /  15.0 °C 30 in /  1015.5 hPa Calm   6 mph /  9.7 km/h 35 % 0 in /  0.0 mm
19:52 90.7 °F /  32.6 °C 59.2 °F /  15.1 °C 30 in /  1015.5 hPa Calm   6 mph /  9.7 km/h 35 % 0 in /  0.0 mm
19:57 90.5 °F /  32.5 °C 59.9 °F /  15.5 °C 30 in /  1015.5 hPa ESE 3 mph /  4.8 km/h 6 mph /  9.7 km/h 36 % 0 in /  0.0 mm
20:02 90.1 °F /  32.3 °C 60.4 °F /  15.8 °C 30 in /  1015.5 hPa East 4 mph /  6.4 km/h 5 mph /  8.0 km/h 37 % 0 in /  0.0 mm
20:12 89.1 °F /  31.7 °C 60.8 °F /  16.0 °C 30 in /  1015.5 hPa ENE 3 mph /  4.8 km/h 6 mph /  9.7 km/h 39 % 0 in /  0.0 mm
20:17 88.3 °F /  31.3 °C 61 °F /  16.1 °C 30 in /  1015.8 hPa East 1 mph /  1.6 km/h 6 mph /  9.7 km/h 40 % 0 in /  0.0 mm
20:22 87.6 °F /  30.9 °C 61 °F /  16.1 °C 30 in /  1015.8 hPa East 3 mph /  4.8 km/h 5 mph /  8.0 km/h 41 % 0 in /  0.0 mm
20:27 87.3 °F /  30.7 °C 61.3 °F /  16.3 °C 30 in /  1015.8 hPa ESE 1 mph /  1.6 km/h 5 mph /  8.0 km/h 42 % 0 in /  0.0 mm
20:32 87.1 °F /  30.6 °C 61.9 °F /  16.6 °C 30 in /  1015.8 hPa East 3 mph /  4.8 km/h 5 mph /  8.0 km/h 43 % 0 in /  0.0 mm
20:37 87.1 °F /  30.6 °C 61.9 °F /  16.6 °C 30 in /  1015.8 hPa East 2 mph /  3.2 km/h 5 mph /  8.0 km/h 43 % 0 in /  0.0 mm
20:42 87.1 °F /  30.6 °C 61.9 °F /  16.6 °C 30 in /  1015.8 hPa East 2 mph /  3.2 km/h 4 mph /  6.4 km/h 43 % 0 in /  0.0 mm
20:47 87.1 °F /  30.6 °C 61.2 °F /  16.2 °C 30 in /  1015.8 hPa East 3 mph /  4.8 km/h 6 mph /  9.7 km/h 42 % 0 in /  0.0 mm
20:52 87.3 °F /  30.7 °C 61.3 °F /  16.3 °C 30 in /  1015.8 hPa Calm   6 mph /  9.7 km/h 42 % 0 in /  0.0 mm
21:02 87.1 °F /  30.6 °C 61.9 °F /  16.6 °C 30 in /  1015.8 hPa Calm   3 mph /  4.8 km/h 43 % 0 in /  0.0 mm
21:07 86.9 °F /  30.5 °C 62.4 °F /  16.9 °C 30 in /  1015.8 hPa Calm   3 mph /  4.8 km/h 44 % 0 in /  0.0 mm
21:12 86.5 °F /  30.3 °C 62.1 °F /  16.7 °C 30 in /  1015.8 hPa Calm   2 mph /  3.2 km/h 44 % 0 in /  0.0 mm
21:17 86.2 °F /  30.1 °C 62.4 °F /  16.9 °C 30 in /  1015.8 hPa Calm     45 % 0 in /  0.0 mm
21:22 85.8 °F /  29.9 °C 62.6 °F /  17.0 °C 30 in /  1015.8 hPa Calm     46 % 0 in /  0.0 mm
21:32 85.5 °F /  29.7 °C 63 °F /  17.2 °C 30 in /  1015.8 hPa Calm     47 % 0 in /  0.0 mm
21:37 84.7 °F /  29.3 °C 63 °F /  17.2 °C 30 in /  1015.8 hPa Calm     48 % 0 in /  0.0 mm
21:47 82.9 °F /  28.3 °C 63 °F /  17.2 °C 30 in /  1015.8 hPa Calm     51 % 0 in /  0.0 mm
21:52 81.9 °F /  27.7 °C 63 °F /  17.2 °C 30 in /  1015.8 hPa Calm     53 % 0 in /  0.0 mm
21:57 81 °F /  27.2 °C 62.2 °F /  16.8 °C 30 in /  1015.8 hPa Calm     53 % 0 in /  0.0 mm
22:02 80.4 °F /  26.9 °C 62.2 °F /  16.8 °C 30 in /  1015.8 hPa Calm     54 % 0 in /  0.0 mm
22:07 80.1 °F /  26.7 °C 61.9 °F /  16.6 °C 30 in /  1015.8 hPa Calm     54 % 0 in /  0.0 mm
22:12 79.5 °F /  26.4 °C 63 °F /  17.2 °C 30 in /  1016.1 hPa Calm     57 % 0 in /  0.0 mm
22:17 78.4 °F /  25.8 °C 62.4 °F /  16.9 °C 30 in /  1016.1 hPa Calm     58 % 0 in /  0.0 mm
22:32 76.8 °F /  24.9 °C 62.4 °F /  16.9 °C 30 in /  1016.1 hPa Calm     61 % 0 in /  0.0 mm
22:37 76.5 °F /  24.7 °C 62.4 °F /  16.9 °C 30 in /  1016.1 hPa Calm     62 % 0 in /  0.0 mm
22:42 75.9 °F /  24.4 °C 61.9 °F /  16.6 °C 30 in /  1016.1 hPa Calm     62 % 0 in /  0.0 mm
22:47 75.7 °F /  24.3 °C 61.9 °F /  16.6 °C 30 in /  1016.1 hPa Calm     62 % 0 in /  0.0 mm
22:52 75.7 °F /  24.3 °C 61.9 °F /  16.6 °C 30 in /  1016.1 hPa Calm     62 % 0 in /  0.0 mm
22:57 75.7 °F /  24.3 °C 61.9 °F /  16.6 °C 30 in /  1016.1 hPa Calm     62 % 0 in /  0.0 mm
23:02 75.7 °F /  24.3 °C 61.9 °F /  16.6 °C 30 in /  1016.1 hPa Calm     62 % 0 in /  0.0 mm
23:07 75.6 °F /  24.2 °C 62.6 °F /  17.0 °C 30 in /  1016.1 hPa Calm     64 % 0 in /  0.0 mm
23:12 74.8 °F /  23.8 °C 61.9 °F /  16.6 °C 30 in /  1016.5 hPa Calm     64 % 0 in /  0.0 mm
23:17 74.1 °F /  23.4 °C 61.5 °F /  16.4 °C 30 in /  1016.5 hPa Calm     65 % 0 in /  0.0 mm
23:22 73.8 °F /  23.2 °C 61.7 °F /  16.5 °C 30 in /  1016.1 hPa Calm     66 % 0 in /  0.0 mm
23:27 73.4 °F /  23.0 °C 61.3 °F /  16.3 °C 30 in /  1016.5 hPa Calm     66 % 0 in /  0.0 mm
23:32 73.8 °F /  23.2 °C 61.7 °F /  16.5 °C 30 in /  1016.5 hPa NW 1 mph /  1.6 km/h   66 % 0 in /  0.0 mm
23:37 73.9 °F /  23.3 °C 61.9 °F /  16.6 °C 30 in /  1016.5 hPa NNW 1 mph /  1.6 km/h 2 mph /  3.2 km/h 66 % 0 in /  0.0 mm
23:42 73.9 °F /  23.3 °C 61.9 °F /  16.6 °C 30 in /  1016.5 hPa Calm   2 mph /  3.2 km/h 66 % 0 in /  0.0 mm
23:47 73.8 °F /  23.2 °C 61.7 °F /  16.5 °C 30 in /  1016.5 hPa Calm   2 mph /  3.2 km/h 66 % 0 in /  0.0 mm
23:52 73.2 °F /  22.9 °C 62.1 °F /  16.7 °C 30 in /  1016.5 hPa North 1 mph /  1.6 km/h 2 mph /  3.2 km/h 68 % 0 in /  0.0 mm
23:57 73.6 °F /  23.1 °C 61.9 °F /  16.6 °C 30 in /  1016.5 hPa North 1 mph /  1.6 km/h 2 mph /  3.2 km/h 67 % 0 in /  0.0 mm
Meteo18
Compliments of Weather Underground - 4 mb

Script developed by  Jim McMurry - jmcmurry@mwt.net Adapted for the template by  Wim van der Kuil - Leuven-Template.eu

You find our weather info also at:

European Weather Network

Weather Underground

Equipment we use:

Weather-station
Davis Vue

Weather-program
Meteohub

Weather-server
Raspberry PI 2 B+

Provider
1 and 1

Davis Vue

Meteohub

Raspberry PI 2 B+

1 and 1